sensor_id;sensor_type;location;lat;lon;timestamp;pressure;altitude;pressure_sealevel;temperature;humidity
54588;BME280;40484;50.198;19.576;2023-02-11T00:04:56;103297.05;;;2.25;47.72
54588;BME280;40484;50.198;19.576;2023-02-11T00:09:57;103284.18;;;1.98;48.31
54588;BME280;40484;50.198;19.576;2023-02-11T00:14:59;103270.16;;;2.11;47.98
54588;BME280;40484;50.198;19.576;2023-02-11T00:20:01;103262.06;;;1.98;48.40
54588;BME280;40484;50.198;19.576;2023-02-11T00:25:02;103273.31;;;2.14;48.12
54588;BME280;40484;50.198;19.576;2023-02-11T00:30:04;103272.09;;;1.81;49.03
54588;BME280;40484;50.198;19.576;2023-02-11T00:35:06;103262.05;;;1.83;48.99
54588;BME280;40484;50.198;19.576;2023-02-11T00:40:09;103263.30;;;1.37;50.16
54588;BME280;40484;50.198;19.576;2023-02-11T00:45:11;103242.21;;;1.84;49.10
54588;BME280;40484;50.198;19.576;2023-02-11T00:50:12;103233.77;;;1.59;49.99
54588;BME280;40484;50.198;19.576;2023-02-11T00:55:14;103221.05;;;1.70;49.99
54588;BME280;40484;50.198;19.576;2023-02-11T01:00:17;103211.40;;;1.76;50.04
54588;BME280;40484;50.198;19.576;2023-02-11T01:05:18;103208.09;;;1.80;50.09
54588;BME280;40484;50.198;19.576;2023-02-11T01:10:20;103198.09;;;1.92;49.76
54588;BME280;40484;50.198;19.576;2023-02-11T01:15:22;103197.95;;;1.73;50.02
54588;BME280;40484;50.198;19.576;2023-02-11T01:20:51;103189.83;;;1.39;50.97
54588;BME280;40484;50.198;19.576;2023-02-11T01:25:53;103149.66;;;1.41;50.95
54588;BME280;40484;50.198;19.576;2023-02-11T01:30:55;103152.59;;;1.56;50.68
54588;BME280;40484;50.198;19.576;2023-02-11T01:36:01;103123.84;;;1.81;50.31
54588;BME280;40484;50.198;19.576;2023-02-11T01:41:06;103103.78;;;1.93;49.90
54588;BME280;40484;50.198;19.576;2023-02-11T01:46:28;103109.24;;;2.06;49.42
54588;BME280;40484;50.198;19.576;2023-02-11T01:51:33;103116.84;;;1.58;50.54
54588;BME280;40484;50.198;19.576;2023-02-11T01:56:36;103134.22;;;1.77;50.03
54588;BME280;40484;50.198;19.576;2023-02-11T02:02:18;103142.69;;;1.75;50.15
54588;BME280;40484;50.198;19.576;2023-02-11T02:07:56;103155.87;;;1.76;50.26
54588;BME280;40484;50.198;19.576;2023-02-11T02:12:56;103151.20;;;1.70;50.43
54588;BME280;40484;50.198;19.576;2023-02-11T02:18:03;103127.28;;;1.80;50.29
54588;BME280;40484;50.198;19.576;2023-02-11T02:23:41;103140.02;;;1.64;50.86
54588;BME280;40484;50.198;19.576;2023-02-11T02:34:28;103106.95;;;1.57;51.37
54588;BME280;40484;50.198;19.576;2023-02-11T02:39:54;103077.71;;;1.87;51.13
54588;BME280;40484;50.198;19.576;2023-02-11T02:44:57;103063.91;;;1.54;52.10
54588;BME280;40484;50.198;19.576;2023-02-11T02:49:59;103045.75;;;1.81;51.27
54588;BME280;40484;50.198;19.576;2023-02-11T02:55:11;103039.71;;;1.68;51.57
54588;BME280;40484;50.198;19.576;2023-02-11T03:10:51;102993.30;;;2.00;50.86
54588;BME280;40484;50.198;19.576;2023-02-11T03:15:54;103008.35;;;1.77;51.20
54588;BME280;40484;50.198;19.576;2023-02-11T03:20:57;102994.14;;;2.15;50.45
54588;BME280;40484;50.198;19.576;2023-02-11T03:26:08;102965.21;;;2.21;50.30
54588;BME280;40484;50.198;19.576;2023-02-11T03:37:12;102986.20;;;2.61;49.68
54588;BME280;40484;50.198;19.576;2023-02-11T03:42:13;102984.75;;;2.52;49.79
54588;BME280;40484;50.198;19.576;2023-02-11T03:47:18;102964.47;;;2.74;49.34
54588;BME280;40484;50.198;19.576;2023-02-11T03:52:21;102956.16;;;2.73;49.25
54588;BME280;40484;50.198;19.576;2023-02-11T03:57:23;102939.20;;;2.43;50.16
54588;BME280;40484;50.198;19.576;2023-02-11T04:02:29;102954.75;;;2.51;49.92
54588;BME280;40484;50.198;19.576;2023-02-11T04:07:31;102922.14;;;2.77;49.40
54588;BME280;40484;50.198;19.576;2023-02-11T04:12:33;102922.20;;;2.75;49.31
54588;BME280;40484;50.198;19.576;2023-02-11T04:17:34;102899.52;;;2.35;50.21
54588;BME280;40484;50.198;19.576;2023-02-11T04:22:36;102889.08;;;2.61;49.70
54588;BME280;40484;50.198;19.576;2023-02-11T04:27:37;102870.69;;;2.31;50.44
54588;BME280;40484;50.198;19.576;2023-02-11T04:32:39;102872.59;;;2.07;50.77
54588;BME280;40484;50.198;19.576;2023-02-11T04:37:40;102865.16;;;2.16;50.86
54588;BME280;40484;50.198;19.576;2023-02-11T04:42:43;102881.79;;;2.07;50.97
54588;BME280;40484;50.198;19.576;2023-02-11T04:47:44;102887.46;;;2.24;50.79
54588;BME280;40484;50.198;19.576;2023-02-11T04:52:46;102894.40;;;2.42;50.06
54588;BME280;40484;50.198;19.576;2023-02-11T04:57:47;102890.77;;;2.34;50.32
54588;BME280;40484;50.198;19.576;2023-02-11T05:02:49;102870.13;;;2.19;50.75
54588;BME280;40484;50.198;19.576;2023-02-11T05:07:50;102874.45;;;1.77;51.94
54588;BME280;40484;50.198;19.576;2023-02-11T05:13:16;102857.31;;;2.24;51.10
54588;BME280;40484;50.198;19.576;2023-02-11T05:18:18;102869.20;;;2.15;51.11
54588;BME280;40484;50.198;19.576;2023-02-11T05:23:19;102884.46;;;2.22;51.20
54588;BME280;40484;50.198;19.576;2023-02-11T05:28:21;102852.26;;;2.04;51.78
54588;BME280;40484;50.198;19.576;2023-02-11T05:33:22;102860.02;;;2.25;51.20
54588;BME280;40484;50.198;19.576;2023-02-11T05:38:24;102856.27;;;2.27;51.20
54588;BME280;40484;50.198;19.576;2023-02-11T05:43:26;102873.20;;;2.35;51.20
54588;BME280;40484;50.198;19.576;2023-02-11T05:48:28;102882.84;;;2.35;51.37
54588;BME280;40484;50.198;19.576;2023-02-11T05:53:29;102876.41;;;2.24;51.40
54588;BME280;40484;50.198;19.576;2023-02-11T05:58:31;102861.09;;;2.19;51.93
54588;BME280;40484;50.198;19.576;2023-02-11T06:03:33;102829.06;;;2.38;51.53
54588;BME280;40484;50.198;19.576;2023-02-11T06:08:35;102804.82;;;2.28;51.81
54588;BME280;40484;50.198;19.576;2023-02-11T06:13:36;102789.04;;;2.35;51.78
54588;BME280;40484;50.198;19.576;2023-02-11T06:18:38;102789.41;;;2.12;52.44
54588;BME280;40484;50.198;19.576;2023-02-11T06:23:39;102786.96;;;2.21;52.35
54588;BME280;40484;50.198;19.576;2023-02-11T06:28:41;102770.05;;;2.29;52.02
54588;BME280;40484;50.198;19.576;2023-02-11T06:33:42;102776.78;;;2.10;52.66
54588;BME280;40484;50.198;19.576;2023-02-11T06:38:45;102773.11;;;2.35;52.22
54588;BME280;40484;50.198;19.576;2023-02-11T06:43:47;102770.86;;;2.13;52.48
54588;BME280;40484;50.198;19.576;2023-02-11T06:48:48;102778.39;;;2.54;51.71
54588;BME280;40484;50.198;19.576;2023-02-11T06:53:50;102792.20;;;2.45;52.04
54588;BME280;40484;50.198;19.576;2023-02-11T06:58:55;102782.33;;;2.51;51.95
54588;BME280;40484;50.198;19.576;2023-02-11T07:04:21;102791.19;;;2.62;51.65
54588;BME280;40484;50.198;19.576;2023-02-11T07:09:22;102797.00;;;2.66;51.31
54588;BME280;40484;50.198;19.576;2023-02-11T07:14:24;102808.57;;;2.54;51.81
54588;BME280;40484;50.198;19.576;2023-02-11T07:19:25;102783.12;;;2.64;51.57
54588;BME280;40484;50.198;19.576;2023-02-11T07:24:27;102788.45;;;2.63;51.53
54588;BME280;40484;50.198;19.576;2023-02-11T07:29:29;102778.39;;;2.54;51.86
54588;BME280;40484;50.198;19.576;2023-02-11T07:34:30;102779.23;;;2.80;51.11
54588;BME280;40484;50.198;19.576;2023-02-11T07:39:32;102782.42;;;2.79;51.31
54588;BME280;40484;50.198;19.576;2023-02-11T07:44:34;102783.95;;;2.74;51.36
54588;BME280;40484;50.198;19.576;2023-02-11T07:49:36;102800.82;;;2.78;51.26
54588;BME280;40484;50.198;19.576;2023-02-11T07:54:38;102788.69;;;2.58;51.67
54588;BME280;40484;50.198;19.576;2023-02-11T07:59:40;102781.48;;;2.97;51.13
54588;BME280;40484;50.198;19.576;2023-02-11T08:04:41;102769.38;;;3.21;50.66
54588;BME280;40484;50.198;19.576;2023-02-11T08:09:43;102758.05;;;2.90;51.52
54588;BME280;40484;50.198;19.576;2023-02-11T08:14:45;102753.99;;;3.21;51.17
54588;BME280;40484;50.198;19.576;2023-02-11T08:19:46;102755.17;;;3.13;51.08
54588;BME280;40484;50.198;19.576;2023-02-11T08:24:48;102757.92;;;3.11;51.12
54588;BME280;40484;50.198;19.576;2023-02-11T08:29:49;102757.72;;;3.15;50.97
54588;BME280;40484;50.198;19.576;2023-02-11T08:34:51;102763.45;;;3.22;50.90
54588;BME280;40484;50.198;19.576;2023-02-11T08:39:53;102761.83;;;3.46;50.36
54588;BME280;40484;50.198;19.576;2023-02-11T08:44:54;102738.11;;;3.83;49.62
54588;BME280;40484;50.198;19.576;2023-02-11T08:49:56;102759.70;;;3.58;50.05
54588;BME280;40484;50.198;19.576;2023-02-11T08:55:22;102736.79;;;4.21;48.91
54588;BME280;40484;50.198;19.576;2023-02-11T09:00:23;102732.33;;;4.26;48.50
54588;BME280;40484;50.198;19.576;2023-02-11T09:05:25;102745.91;;;4.30;48.59
54588;BME280;40484;50.198;19.576;2023-02-11T09:10:27;102725.87;;;4.36;48.46
54588;BME280;40484;50.198;19.576;2023-02-11T09:15:29;102716.37;;;4.13;49.03
54588;BME280;40484;50.198;19.576;2023-02-11T09:20:31;102745.36;;;4.13;48.98
54588;BME280;40484;50.198;19.576;2023-02-11T09:25:33;102754.42;;;4.24;48.52
54588;BME280;40484;50.198;19.576;2023-02-11T09:30:37;102767.76;;;4.56;48.28
54588;BME280;40484;50.198;19.576;2023-02-11T09:35:39;102763.87;;;4.61;47.74
54588;BME280;40484;50.198;19.576;2023-02-11T09:40:45;102770.66;;;4.38;48.31
54588;BME280;40484;50.198;19.576;2023-02-11T09:45:44;102783.55;;;4.52;48.22
54588;BME280;40484;50.198;19.576;2023-02-11T09:50:48;102776.41;;;4.56;47.71
54588;BME280;40484;50.198;19.576;2023-02-11T09:55:51;102769.19;;;4.79;47.97
54588;BME280;40484;50.198;19.576;2023-02-11T10:01:07;102768.23;;;4.54;48.37
54588;BME280;40484;50.198;19.576;2023-02-11T10:06:36;102751.73;;;4.68;48.05
54588;BME280;40484;50.198;19.576;2023-02-11T10:12:36;102750.55;;;4.81;47.82
54588;BME280;40484;50.198;19.576;2023-02-11T10:28:17;102709.39;;;4.93;48.10
54588;BME280;40484;50.198;19.576;2023-02-11T10:33:42;102698.14;;;4.56;48.28
54588;BME280;40484;50.198;19.576;2023-02-11T18:26:43;102651.71;;;4.62;63.56
54588;BME280;40484;50.198;19.576;2023-02-11T18:31:46;102648.83;;;4.82;63.17
54588;BME280;40484;50.198;19.576;2023-02-11T18:36:47;102653.09;;;4.84;63.19
54588;BME280;40484;50.198;19.576;2023-02-11T18:41:49;102655.86;;;4.83;63.34
54588;BME280;40484;50.198;19.576;2023-02-11T18:46:53;102658.51;;;4.70;63.70
54588;BME280;40484;50.198;19.576;2023-02-11T18:51:55;102671.07;;;4.86;63.33
54588;BME280;40484;50.198;19.576;2023-02-11T18:56:58;102666.08;;;4.89;63.43
54588;BME280;40484;50.198;19.576;2023-02-11T19:02:00;102669.45;;;4.67;64.44
54588;BME280;40484;50.198;19.576;2023-02-11T19:07:02;102675.00;;;4.90;63.64
54588;BME280;40484;50.198;19.576;2023-02-11T19:12:04;102672.48;;;4.77;63.86
54588;BME280;40484;50.198;19.576;2023-02-11T19:17:08;102672.80;;;4.91;63.76
54588;BME280;40484;50.198;19.576;2023-02-11T19:22:11;102679.71;;;4.81;64.11
54588;BME280;40484;50.198;19.576;2023-02-11T19:27:13;102679.95;;;4.93;63.88
54588;BME280;40484;50.198;19.576;2023-02-11T19:32:15;102676.59;;;4.85;64.54
54588;BME280;40484;50.198;19.576;2023-02-11T19:37:17;102685.01;;;4.72;64.95
54588;BME280;40484;50.198;19.576;2023-02-11T19:42:18;102681.16;;;5.01;64.57
54588;BME280;40484;50.198;19.576;2023-02-11T19:47:20;102679.62;;;5.04;64.92
54588;BME280;40484;50.198;19.576;2023-02-11T19:52:24;102687.63;;;5.07;64.74
54588;BME280;40484;50.198;19.576;2023-02-11T19:57:25;102685.07;;;5.25;64.47
54588;BME280;40484;50.198;19.576;2023-02-11T20:02:51;102688.91;;;5.32;64.64
54588;BME280;40484;50.198;19.576;2023-02-11T20:07:53;102686.02;;;5.32;64.75
54588;BME280;40484;50.198;19.576;2023-02-11T20:12:54;102696.44;;;5.46;64.49
54588;BME280;40484;50.198;19.576;2023-02-11T20:17:56;102682.72;;;5.27;65.21
54588;BME280;40484;50.198;19.576;2023-02-11T20:22:58;102690.06;;;5.42;64.83
54588;BME280;40484;50.198;19.576;2023-02-11T20:27:59;102691.45;;;5.53;64.53
54588;BME280;40484;50.198;19.576;2023-02-11T20:33:01;102696.30;;;5.36;64.86
54588;BME280;40484;50.198;19.576;2023-02-11T20:38:03;102699.87;;;5.32;65.33
54588;BME280;40484;50.198;19.576;2023-02-11T20:43:04;102700.57;;;5.67;64.29
54588;BME280;40484;50.198;19.576;2023-02-11T20:48:06;102709.80;;;5.62;64.46
54588;BME280;40484;50.198;19.576;2023-02-11T20:53:07;102709.42;;;5.50;64.63
54588;BME280;40484;50.198;19.576;2023-02-11T20:58:10;102728.39;;;5.83;63.77
54588;BME280;40484;50.198;19.576;2023-02-11T21:03:12;102735.07;;;5.85;63.28
54588;BME280;40484;50.198;19.576;2023-02-11T21:08:14;102736.09;;;6.05;62.96
54588;BME280;40484;50.198;19.576;2023-02-11T21:13:15;102737.20;;;5.73;63.58
54588;BME280;40484;50.198;19.576;2023-02-11T21:18:17;102733.57;;;5.87;63.26
54588;BME280;40484;50.198;19.576;2023-02-11T21:23:19;102744.90;;;5.62;64.06
54588;BME280;40484;50.198;19.576;2023-02-11T21:28:22;102749.28;;;5.84;63.51
54588;BME280;40484;50.198;19.576;2023-02-11T21:33:28;102745.24;;;5.69;64.08
54588;BME280;40484;50.198;19.576;2023-02-11T21:38:30;102753.55;;;5.66;64.59
54588;BME280;40484;50.198;19.576;2023-02-11T21:43:59;102759.53;;;5.70;64.96
54588;BME280;40484;50.198;19.576;2023-02-11T21:49:01;102765.23;;;5.77;64.42
54588;BME280;40484;50.198;19.576;2023-02-11T21:54:03;102764.22;;;5.77;64.66
54588;BME280;40484;50.198;19.576;2023-02-11T21:59:05;102776.19;;;5.93;64.42
54588;BME280;40484;50.198;19.576;2023-02-11T22:04:06;102783.61;;;6.05;63.99
54588;BME280;40484;50.198;19.576;2023-02-11T22:09:08;102789.50;;;6.20;63.77
54588;BME280;40484;50.198;19.576;2023-02-11T22:14:11;102795.01;;;6.15;63.84
54588;BME280;40484;50.198;19.576;2023-02-11T22:19:13;102796.20;;;6.14;64.06
54588;BME280;40484;50.198;19.576;2023-02-11T22:24:14;102811.78;;;6.33;63.46
54588;BME280;40484;50.198;19.576;2023-02-11T22:29:16;102811.52;;;5.94;64.77
54588;BME280;40484;50.198;19.576;2023-02-11T22:34:18;102820.69;;;6.16;64.23
54588;BME280;40484;50.198;19.576;2023-02-11T22:39:20;102832.18;;;6.28;63.85
54588;BME280;40484;50.198;19.576;2023-02-11T22:44:22;102833.30;;;6.29;64.08
54588;BME280;40484;50.198;19.576;2023-02-11T22:49:24;102833.05;;;6.32;64.16
54588;BME280;40484;50.198;19.576;2023-02-11T22:54:26;102845.94;;;6.18;64.86
54588;BME280;40484;50.198;19.576;2023-02-11T22:59:28;102840.15;;;6.22;64.50
54588;BME280;40484;50.198;19.576;2023-02-11T23:04:30;102845.16;;;6.15;64.97
54588;BME280;40484;50.198;19.576;2023-02-11T23:09:31;102842.32;;;6.36;64.29
54588;BME280;40484;50.198;19.576;2023-02-11T23:14:33;102839.75;;;6.35;64.34
54588;BME280;40484;50.198;19.576;2023-02-11T23:19:34;102837.13;;;6.40;64.23
54588;BME280;40484;50.198;19.576;2023-02-11T23:24:36;102838.55;;;6.32;64.69
54588;BME280;40484;50.198;19.576;2023-02-11T23:30:04;102848.20;;;6.38;64.53
54588;BME280;40484;50.198;19.576;2023-02-11T23:35:06;102844.88;;;6.55;64.14
54588;BME280;40484;50.198;19.576;2023-02-11T23:40:08;102852.98;;;6.73;63.42
54588;BME280;40484;50.198;19.576;2023-02-11T23:45:10;102860.34;;;6.29;64.65
54588;BME280;40484;50.198;19.576;2023-02-11T23:50:12;102864.80;;;6.61;63.81
54588;BME280;40484;50.198;19.576;2023-02-11T23:55:14;102865.84;;;6.74;63.53
